Time;durP1;ratioP1;P1;durP2;ratioP2;P2;SDS_P1;SDS_P2;PMS_P1;PMS_P2;Temp;Humidity;BMP_temperature;BMP_pressure;BME280_temperature;BME280_humidity;BME280_pressure;Samples;Min_cycle;Max_cycle;Signal;HPM_P1;HPM_P2
2021/11/17 02:28:19;;;;;;;56.80;30.10;;;;;;;1.53;100.00;99513.27;104704;1318;75599;-76
2021/11/17 02:31:01;;;;;;;47.30;25.80;;;;;;;1.54;100.00;99513.27;104621;1319;69480;-76
2021/11/17 02:33:56;;;;;;;53.60;28.40;;;;;;;1.49;100.00;99508.81;101689;1319;74710;-77
2021/11/17 02:36:50;;;;;;;45.80;27.30;;;;;;;1.45;100.00;99505.93;101711;1318;61339;-78
2021/11/17 02:39:36;;;;;;;46.20;26.10;;;;;;;1.41;100.00;99499.54;102397;1317;61234;-78
2021/11/17 02:42:42;;;;;;;63.90;28.30;;;;;;;1.35;100.00;99497.20;102405;1310;74467;-76
2021/11/17 02:45:33;;;;;;;52.90;26.80;;;;;;;1.34;100.00;99498.27;102300;1310;70537;-78
2021/11/17 02:48:09;;;;;;;55.80;27.50;;;;;;;1.30;100.00;99491.70;102234;1311;74270;-78
2021/11/17 02:51:04;;;;;;;57.20;27.30;;;;;;;1.26;100.00;99488.66;101841;1316;61288;-78
2021/11/17 02:54:11;;;;;;;52.40;28.70;;;;;;;1.19;100.00;99485.31;102268;1310;60629;-77
2021/11/17 02:57:02;;;;;;;50.50;29.60;;;;;;;1.08;100.00;99488.51;101583;1322;76331;-78
2021/11/17 02:59:51;;;;;;;57.20;28.00;;;;;;;1.09;100.00;99488.50;101316;1322;69537;-77
2021/11/17 03:02:17;;;;;;;69.40;28.90;;;;;;;1.07;100.00;99489.58;101263;1325;73646;-77
2021/11/17 03:04:51;;;;;;;65.60;29.70;;;;;;;1.07;100.00;99493.25;101307;1322;61623;-78
2021/11/17 03:07:36;;;;;;;61.20;29.30;;;;;;;1.08;100.00;99494.29;101415;1322;62286;-77
2021/11/17 03:10:41;;;;;;;75.70;31.40;;;;;;;1.10;100.00;99496.86;101324;1322;76104;-79
2021/11/17 03:13:26;;;;;;;63.20;31.40;;;;;;;1.12;100.00;99496.13;100739;1324;68775;-78
2021/11/17 03:16:11;;;;;;;64.10;37.50;;;;;;;1.12;100.00;99496.47;100734;1331;74587;-77
2021/11/17 03:18:43;;;;;;;59.80;30.90;;;;;;;1.15;100.00;99494.65;100732;1325;61323;-77
2021/11/17 03:21:22;;;;;;;62.10;31.30;;;;;;;1.13;100.00;99498.38;100603;1328;61428;-76
2021/11/17 03:23:57;;;;;;;53.60;30.90;;;;;;;1.10;100.00;99497.05;100691;1325;76638;-78
2021/11/17 03:26:27;;;;;;;50.80;28.10;;;;;;;1.06;100.00;99495.90;100717;1324;70590;-77
2021/11/17 03:29:23;;;;;;;52.40;29.30;;;;;;;1.07;100.00;99494.64;100751;1328;73495;-77
2021/11/17 03:32:21;;;;;;;57.10;29.20;;;;;;;1.06;100.00;99493.09;100409;1331;61475;-77
2021/11/17 03:35:03;;;;;;;53.70;29.00;;;;;;;1.05;100.00;99492.75;100622;1325;61267;-78
2021/11/17 03:37:58;;;;;;;58.60;30.10;;;;;;;1.03;100.00;99482.50;100624;1327;75533;-77
2021/11/17 03:40:46;;;;;;;57.40;29.70;;;;;;;1.01;100.00;99479.90;100115;1334;70878;-78
2021/11/17 03:43:31;;;;;;;69.10;33.40;;;;;;;0.99;100.00;99476.77;100124;1333;74128;-79
2021/11/17 03:46:10;;;;;;;51.90;31.90;;;;;;;0.98;100.00;99475.77;100194;1333;61529;-78
2021/11/17 03:48:52;;;;;;;52.10;32.30;;;;;;;0.99;100.00;99473.13;100512;1327;62185;-77
2021/11/17 03:51:31;;;;;;;55.90;32.90;;;;;;;0.99;100.00;99471.88;100694;1335;75538;-77
2021/11/17 03:54:16;;;;;;;58.50;33.80;;;;;;;1.01;100.00;99469.58;100569;1334;69854;-77
2021/11/17 03:56:45;;;;;;;50.90;34.30;;;;;;;1.01;100.00;99470.98;100601;1328;74699;-75
2021/11/17 04:00:00;;;;;;;59.80;34.00;;;;;;;1.00;100.00;99471.89;100574;1334;61437;-77
2021/11/17 04:02:48;;;;;;;60.20;29.90;;;;;;;0.93;100.00;99475.34;100148;1337;61486;-77
2021/11/17 04:05:43;;;;;;;57.30;33.30;;;;;;;0.87;100.00;99472.48;100176;1337;73821;-78
2021/11/17 04:08:36;;;;;;;57.00;37.00;;;;;;;0.86;100.00;99473.70;100183;1337;69918;-79
2021/11/17 04:11:12;;;;;;;55.20;35.60;;;;;;;0.85;100.00;99470.23;100327;1330;73560;-78
2021/11/17 04:13:57;;;;;;;60.20;35.90;;;;;;;0.85;100.00;99466.77;100287;1331;61479;-76
2021/11/17 04:16:45;;;;;;;55.30;34.80;;;;;;;0.83;100.00;99467.66;100342;1330;62267;-77
2021/11/17 04:19:30;;;;;;;55.20;35.70;;;;;;;0.79;100.00;99468.96;100598;1333;75805;-78
2021/11/17 04:22:04;;;;;;;52.60;34.40;;;;;;;0.75;100.00;99466.77;100666;1327;69826;-77
2021/11/17 04:24:39;;;;;;;50.90;33.40;;;;;;;0.73;100.00;99463.48;100618;1331;72719;-79
2021/11/17 04:27:18;;;;;;;50.40;32.10;;;;;;;0.72;100.00;99458.63;100644;1328;61475;-78
2021/11/17 04:29:51;;;;;;;59.20;32.80;;;;;;;0.70;100.00;99461.98;100754;1328;62266;-77
2021/11/17 04:32:45;;;;;;;49.70;30.30;;;;;;;0.66;100.00;99466.95;100716;1330;75030;-79
2021/11/17 04:36:01;;;;;;;49.90;31.30;;;;;;;0.60;100.00;99467.77;101322;1322;70582;-76
2021/11/17 04:38:30;;;;;;;112.30;73.80;;;;;;;0.55;100.00;99463.65;100632;1328;74144;-77
2021/11/17 04:41:07;;;;;;;110.70;70.50;;;;;;;0.54;100.00;99464.38;100475;1327;218216;-77
2021/11/17 04:44:14;;;;;;;133.20;86.70;;;;;;;0.49;100.00;99465.88;100672;1328;62441;-78
2021/11/17 04:46:53;;;;;;;61.00;34.00;;;;;;;0.48;100.00;99473.40;100311;1336;75016;-80
2021/11/17 04:49:39;;;;;;;63.60;31.70;;;;;;;0.45;100.00;99465.41;100507;1327;70719;-77
2021/11/17 04:52:27;;;;;;;63.40;32.50;;;;;;;0.43;100.00;99472.46;100595;1327;73615;-76
2021/11/17 04:55:04;;;;;;;61.40;32.00;;;;;;;0.44;100.00;99473.13;100586;1327;61351;-78
2021/11/17 04:57:37;;;;;;;62.20;33.40;;;;;;;0.43;100.00;99469.98;100655;1331;61687;-75
2021/11/17 05:00:22;;;;;;;44.20;28.50;;;;;;;0.44;100.00;99469.64;100993;1327;76526;-76
2021/11/17 05:02:55;;;;;;;48.60;32.30;;;;;;;0.39;100.00;99473.73;100911;1328;70905;-77
2021/11/17 05:05:50;;;;;;;59.40;30.50;;;;;;;0.32;100.00;99474.40;100995;1331;73593;-77
2021/11/17 05:08:38;;;;;;;45.60;31.10;;;;;;;0.25;100.00;99473.63;100638;1330;61517;-76
2021/11/17 05:11:16;;;;;;;54.30;31.80;;;;;;;0.23;100.00;99477.16;100641;1330;61250;-77
2021/11/17 05:14:01;;;;;;;54.10;32.30;;;;;;;0.23;100.00;99475.08;100614;1327;75684;-77
2021/11/17 05:16:34;;;;;;;49.50;31.00;;;;;;;0.23;100.00;99479.26;101071;1322;70863;-77
2021/11/17 05:19:22;;;;;;;52.00;31.40;;;;;;;0.25;100.00;99482.92;101315;1321;74589;-77
2021/11/17 05:22:10;;;;;;;49.60;30.50;;;;;;;0.25;100.00;99478.00;101281;1321;61537;-77
2021/11/17 05:24:48;;;;;;;48.90;30.90;;;;;;;0.25;100.00;99478.71;102066;1317;62133;-79
2021/11/17 05:27:21;;;;;;;45.20;29.50;;;;;;;0.25;100.00;99478.71;102348;1310;76571;-77
2021/11/17 05:30:16;;;;;;;48.40;30.50;;;;;;;0.23;100.00;99478.58;102351;1314;70096;-77
2021/11/17 05:33:06;;;;;;;50.00;31.30;;;;;;;0.21;100.00;99480.52;102277;1310;72095;-77
2021/11/17 05:36:13;;;;;;;66.60;28.60;;;;;;;0.19;100.00;99481.42;101375;1321;61369;-78
2021/11/17 05:39:15;;;;;;;50.60;32.20;;;;;;;0.16;100.00;99484.10;100803;1328;61422;-77
2021/11/17 05:41:48;;;;;;;54.20;32.70;;;;;;;0.17;100.00;99487.93;100468;1331;75927;-77
2021/11/17 05:44:45;;;;;;;48.80;29.30;;;;;;;0.15;100.00;99486.04;100486;1331;70051;-77
2021/11/17 05:47:46;;;;;;;50.70;29.60;;;;;;;0.10;100.00;99475.82;100487;1336;74701;-77
2021/11/17 05:50:36;;;;;;;42.30;29.70;;;;;;;0.09;100.00;99481.42;100664;1330;61491;-78
2021/11/17 05:53:21;;;;;;;49.60;30.00;;;;;;;0.08;100.00;99480.21;100501;1331;61358;-76
2021/11/17 05:56:01;;;;;;;53.40;31.60;;;;;;;0.09;100.00;99480.91;100577;1330;76548;-76
2021/11/17 05:58:27;;;;;;;59.30;29.50;;;;;;;0.08;100.00;99483.01;100452;1331;68616;-77
2021/11/17 06:00:57;;;;;;;59.60;32.50;;;;;;;0.06;100.00;99489.51;100475;1330;61366;-77
2021/11/17 06:03:55;;;;;;;52.60;33.20;;;;;;;0.05;100.00;99491.27;100485;1331;61506;-76
2021/11/17 06:06:22;;;;;;;44.30;29.30;;;;;;;0.05;100.00;99497.73;100461;1330;61473;-76
2021/11/17 06:08:58;;;;;;;60.30;36.60;;;;;;;0.08;100.00;99501.02;100439;1334;75888;-76
2021/11/17 06:11:44;;;;;;;58.00;35.60;;;;;;;0.11;100.00;99496.75;100457;1331;70506;-77
2021/11/17 06:14:15;;;;;;;50.90;31.80;;;;;;;0.13;100.00;99503.73;100693;1328;71692;-77
2021/11/17 06:16:47;;;;;;;53.60;34.40;;;;;;;0.13;100.00;99501.44;101398;1318;61370;-76
2021/11/17 06:19:18;;;;;;;66.60;43.70;;;;;;;0.15;100.00;99503.33;101653;1313;61303;-77
2021/11/17 06:21:46;;;;;;;61.40;40.20;;;;;;;0.19;100.00;99503.27;102445;1316;75034;-77
2021/11/17 06:24:15;;;;;;;51.80;34.20;;;;;;;0.21;100.00;99505.52;102046;1318;69561;-77
2021/11/17 06:26:44;;;;;;;56.10;36.70;;;;;;;0.26;100.00;99502.80;102299;1311;74513;-77
2021/11/17 06:29:17;;;;;;;57.50;29.70;;;;;;;0.29;100.00;99503.29;102345;1310;61399;-78
2021/11/17 06:31:47;;;;;;;68.20;33.40;;;;;;;0.29;100.00;99506.77;101999;1318;61231;-76
2021/11/17 06:34:28;;;;;;;55.50;28.30;;;;;;;0.31;100.00;99506.92;102463;1315;75411;-77
2021/11/17 06:36:59;;;;;;;57.20;30.90;;;;;;;0.34;100.00;99511.05;101952;1313;69049;-78
2021/11/17 06:39:27;;;;;;;55.90;31.70;;;;;;;0.35;100.00;99506.84;102284;1310;72568;-76
2021/11/17 06:41:55;;;;;;;53.40;30.10;;;;;;;0.36;100.00;99504.72;102282;1309;61329;-75
2021/11/17 06:44:23;;;;;;;56.50;32.70;;;;;;;0.35;100.00;99501.94;102314;1311;61701;-75
2021/11/17 06:46:51;;;;;;;54.90;31.70;;;;;;;0.37;100.00;99508.38;102349;1310;76039;-75
2021/11/17 06:49:19;;;;;;;53.60;33.20;;;;;;;0.42;100.00;99504.61;102280;1310;69129;-76
2021/11/17 06:51:46;;;;;;;49.40;29.60;;;;;;;0.47;100.00;99496.15;102308;1310;72444;-75
2021/11/17 06:54:13;;;;;;;50.60;32.30;;;;;;;0.47;100.00;99498.78;102225;1313;61320;-76
2021/11/17 06:56:40;;;;;;;52.70;32.90;;;;;;;0.47;100.00;99497.90;101897;1316;61586;-74
2021/11/17 06:59:06;;;;;;;56.70;33.60;;;;;;;0.51;100.00;99493.63;102316;1313;74924;-73
2021/11/17 07:01:33;;;;;;;54.10;34.50;;;;;;;0.54;100.00;99492.88;102295;1310;67930;-74
2021/11/17 07:03:59;;;;;;;46.00;31.70;;;;;;;0.56;100.00;99497.20;102223;1310;73489;-75
2021/11/17 07:06:27;;;;;;;51.00;31.70;;;;;;;0.54;100.00;99493.75;102267;1314;61215;-74
2021/11/17 07:08:54;;;;;;;53.10;30.90;;;;;;;0.54;100.00;99492.16;102327;1310;61525;-75
2021/11/17 07:11:21;;;;;;;60.40;34.90;;;;;;;0.56;100.00;99497.02;102280;1309;75580;-75
2021/11/17 07:13:48;;;;;;;48.90;30.70;;;;;;;0.60;100.00;99497.83;101956;1316;69384;-75
2021/11/17 07:16:15;;;;;;;44.60;28.90;;;;;;;0.62;100.00;99496.91;101856;1317;72616;-75
2021/11/17 07:18:42;;;;;;;49.00;30.00;;;;;;;0.57;100.00;99494.22;102304;1311;61664;-75
2021/11/17 07:21:09;;;;;;;71.30;48.00;;;;;;;0.51;100.00;99498.87;102054;1316;61324;-76
2021/11/17 07:23:36;;;;;;;54.60;40.10;;;;;;;0.56;100.00;99499.13;102314;1310;76413;-75
2021/11/17 07:26:04;;;;;;;75.40;48.70;;;;;;;0.63;100.00;99495.32;102407;1310;68500;-75
2021/11/17 07:28:31;;;;;;;95.40;60.90;;;;;;;0.74;100.00;99496.36;102250;1310;74567;-73
2021/11/17 07:30:57;;;;;;;50.70;36.90;;;;;;;0.83;100.00;99496.70;102458;1310;61345;-76
2021/11/17 07:33:24;;;;;;;41.10;28.90;;;;;;;0.92;100.00;99492.86;102457;1310;61359;-76
2021/11/17 07:35:51;;;;;;;39.60;29.80;;;;;;;0.96;100.00;99492.41;102459;1316;74971;-76
2021/11/17 07:38:22;;;;;;;47.80;30.40;;;;;;;1.03;100.00;99495.42;102437;1310;70504;-77
2021/11/17 07:40:50;;;;;;;45.50;31.00;;;;;;;1.09;100.00;99499.86;102630;1310;74438;-75
2021/11/17 07:43:18;;;;;;;49.60;30.50;;;;;;;1.15;100.00;99495.03;102580;1315;61346;-76
2021/11/17 07:45:45;;;;;;;47.10;31.30;;;;;;;1.21;100.00;99493.84;102814;1317;61260;-75
2021/11/17 07:48:14;;;;;;;42.20;29.60;;;;;;;1.26;100.00;99497.59;102535;1315;75432;-74
2021/11/17 07:50:43;;;;;;;39.70;27.60;;;;;;;1.29;100.00;99496.11;102549;1311;69994;-75
2021/11/17 07:53:12;;;;;;;40.20;29.70;;;;;;;1.30;100.00;99498.89;102574;1310;73418;-75
2021/11/17 07:55:41;;;;;;;42.00;28.90;;;;;;;1.33;100.00;99497.77;102765;1316;61315;-76
2021/11/17 07:58:09;;;;;;;41.50;30.50;;;;;;;1.37;100.00;99497.69;102760;1310;61253;-76
2021/11/17 08:00:39;;;;;;;47.30;31.20;;;;;;;1.40;100.00;99497.64;102519;1310;75598;-75
2021/11/17 08:03:07;;;;;;;;;;;;;;;1.43;100.00;99497.92;103011;1310;69481;-75
2021/11/17 08:05:34;;;;;;;47.80;32.60;;;;;;;1.45;100.00;99492.80;103307;1311;73453;-76
2021/11/17 08:08:01;;;;;;;47.40;33.50;;;;;;;1.48;100.00;99491.33;103386;1310;61308;-75
2021/11/17 08:10:33;;;;;;;46.20;31.90;;;;;;;1.47;100.00;99493.80;104123;1310;62844;-74
2021/11/17 08:13:00;;;;;;;45.80;32.20;;;;;;;1.46;100.00;99491.21;104024;1310;75046;-74
2021/11/17 08:15:28;;;;;;;50.40;34.50;;;;;;;1.44;100.00;99486.85;105610;1314;69458;-75
2021/11/17 08:17:55;;;;;;;51.80;34.70;;;;;;;1.46;100.00;99486.14;105484;1318;73513;-76
2021/11/17 08:20:22;;;;;;;50.00;36.00;;;;;;;1.48;100.00;99489.05;104361;1311;61389;-76
2021/11/17 08:22:51;;;;;;;52.60;35.80;;;;;;;1.52;100.00;99487.38;102849;1310;61473;-74
2021/11/17 08:25:21;;;;;;;47.40;35.70;;;;;;;1.53;100.00;99490.52;102547;1310;75626;-76
2021/11/17 08:27:49;;;;;;;47.60;35.70;;;;;;;1.62;100.00;99484.89;102564;1310;70603;-75
2021/11/17 08:30:18;;;;;;;57.10;40.90;;;;;;;1.71;100.00;99487.84;102526;1310;73758;-75
2021/11/17 08:32:45;;;;;;;60.10;42.50;;;;;;;1.80;100.00;99485.54;102141;1316;61355;-76
2021/11/17 08:35:20;;;;;;;56.90;40.50;;;;;;;1.84;100.00;99484.02;102184;1316;61219;-75
2021/11/17 08:37:48;;;;;;;52.80;36.80;;;;;;;1.90;100.00;99486.16;102344;1316;76014;-82
2021/11/17 08:40:20;;;;;;;56.80;39.00;;;;;;;1.93;100.00;99486.27;102552;1313;69982;-85
2021/11/17 08:42:46;;;;;;;57.10;41.30;;;;;;;1.95;100.00;99487.27;103579;1310;72468;-86
2021/11/17 08:45:14;;;;;;;50.60;37.40;;;;;;;2.01;100.00;99490.98;103146;1313;61250;-85
2021/11/17 08:47:43;;;;;;;50.50;36.50;;;;;;;2.07;100.00;99487.34;103330;1316;61346;-87
2021/11/17 08:50:13;;;;;;;53.60;40.00;;;;;;;2.10;100.00;99490.41;102979;1315;75573;-84
2021/11/17 08:52:40;;;;;;;52.00;39.00;;;;;;;2.15;100.00;99493.80;102889;1316;69049;-84
2021/11/17 08:55:08;;;;;;;58.90;39.50;;;;;;;2.15;100.00;99492.03;102734;1313;73694;-82
2021/11/17 08:57:35;;;;;;;51.70;40.00;;;;;;;2.18;100.00;99489.88;102861;1310;61186;-83
2021/11/17 09:00:06;;;;;;;55.80;39.60;;;;;;;2.19;100.00;99490.35;102659;1310;61282;-84
2021/11/17 09:02:34;;;;;;;55.20;41.30;;;;;;;2.24;100.00;99493.91;102568;1317;76476;-70
2021/11/17 09:05:00;;;;;;;57.10;40.30;;;;;;;2.29;100.00;99492.40;101963;1316;69996;-69
2021/11/17 09:07:27;;;;;;;56.80;44.50;;;;;;;2.32;100.00;99493.52;102257;1310;74545;-69
2021/11/17 09:09:53;;;;;;;53.60;42.90;;;;;;;2.38;100.00;99491.64;101941;1316;61329;-69
2021/11/17 09:12:20;;;;;;;60.80;45.00;;;;;;;2.46;100.00;99487.06;102251;1310;61250;-69
2021/11/17 09:14:47;;;;;;;59.20;43.20;;;;;;;2.53;100.00;99487.73;102240;1311;76688;-68
2021/11/17 09:17:13;;;;;;;59.10;44.70;;;;;;;2.60;100.00;99489.83;102274;1317;70546;-70
2021/11/17 09:19:40;;;;;;;59.10;44.90;;;;;;;2.68;100.00;99485.95;101855;1316;73531;-69
2021/11/17 09:22:07;;;;;;;58.00;42.90;;;;;;;2.76;100.00;99482.02;102225;1310;61346;-68
2021/11/17 09:24:35;;;;;;;56.90;43.90;;;;;;;2.85;100.00;99481.81;102269;1309;61874;-69
2021/11/17 09:27:04;;;;;;;55.60;42.30;;;;;;;2.93;100.00;99479.11;102293;1311;76525;-70
2021/11/17 09:29:33;;;;;;;54.30;41.70;;;;;;;3.03;100.00;99480.94;102333;1310;70486;-70
2021/11/17 09:32:02;;;;;;;57.70;43.70;;;;;;;3.08;100.00;99478.86;102309;1316;74572;-69
2021/11/17 09:34:28;;;;;;;58.50;46.80;;;;;;;3.14;100.00;99477.13;102294;1310;62172;-69
2021/11/17 09:36:55;;;;;;;60.00;47.00;;;;;;;3.19;100.00;99478.38;102306;1317;61363;-68
2021/11/17 09:39:22;;;;;;;62.50;48.00;;;;;;;3.21;100.00;99480.75;102294;1317;76648;-68
2021/11/17 09:41:54;;;;;;;61.70;46.80;;;;;;;3.26;100.00;99483.27;101907;1319;69544;-70
2021/11/17 09:44:28;;;;;;;58.40;44.70;;;;;;;3.27;100.00;99482.70;102030;1316;73502;-69
2021/11/17 09:46:57;;;;;;;61.30;45.40;;;;;;;3.29;100.00;99482.13;102239;1310;61342;-69
2021/11/17 09:49:42;;;;;;;63.30;47.10;;;;;;;3.34;100.00;99481.29;102013;1314;61389;-69
2021/11/17 09:52:14;;;;;;;59.50;47.40;;;;;;;3.36;100.00;99483.14;102289;1313;76584;-69
2021/11/17 09:55:04;;;;;;;62.00;47.70;;;;;;;3.41;100.00;99483.00;102208;1310;70978;-69
2021/11/17 09:57:34;;;;;;;59.50;47.10;;;;;;;3.45;100.00;99485.33;102262;1316;73656;-70
2021/11/17 10:00:07;;;;;;;61.40;47.30;;;;;;;3.48;100.00;99481.90;102225;1317;61274;-69
2021/11/17 10:02:44;;;;;;;60.30;47.40;;;;;;;3.52;100.00;99480.01;102272;1316;61435;-69
2021/11/17 10:05:37;;;;;;;55.60;43.70;;;;;;;3.56;100.00;99470.60;102072;1316;73988;-68
2021/11/17 10:11:16;;;;;;;54.90;43.20;;;;;;;3.64;100.00;99459.80;102408;1310;74499;-69
2021/11/17 10:13:55;;;;;;;55.50;42.10;;;;;;;3.64;100.00;99460.52;101962;1310;62753;-68
2021/11/17 10:16:23;;;;;;;55.70;41.80;;;;;;;3.65;100.00;99459.41;102302;1311;62320;-69
2021/11/17 10:19:12;;;;;;;59.40;42.70;;;;;;;3.66;100.00;99459.77;102448;1310;74986;-70
2021/11/17 10:21:39;;;;;;;59.00;44.70;;;;;;;3.67;100.00;99456.55;102276;1310;70809;-69
2021/11/17 10:24:10;;;;;;;52.10;41.80;;;;;;;3.70;100.00;99456.08;102282;1316;74481;-68
2021/11/17 10:27:01;;;;;;;56.40;43.30;;;;;;;3.73;100.00;99456.17;102249;1310;61410;-69
2021/11/17 10:29:34;;;;;;;56.40;43.70;;;;;;;3.77;100.00;99453.80;102272;1317;61498;-70
2021/11/17 10:32:21;;;;;;;56.50;42.90;;;;;;;3.78;100.00;99452.14;102225;1310;76489;-70
2021/11/17 10:35:01;;;;;;;54.20;42.40;;;;;;;3.82;100.00;99445.17;102271;1310;70652;-68
2021/11/17 10:37:40;;;;;;;59.00;42.70;;;;;;;3.87;100.00;99443.25;102296;1311;73527;-69
2021/11/17 10:40:28;;;;;;;61.50;44.90;;;;;;;3.93;100.00;99438.84;102244;1317;61353;-69
2021/11/17 10:42:59;;;;;;;61.40;46.70;;;;;;;4.00;100.00;99437.38;102253;1316;61238;-69
2021/11/17 10:45:31;;;;;;;59.50;45.00;;;;;;;4.04;100.00;99432.13;102212;1314;75910;-68
2021/11/17 10:47:58;;;;;;;60.60;45.30;;;;;;;4.08;100.00;99429.04;102257;1314;69953;-69
2021/11/17 10:50:37;;;;;;;58.10;44.80;;;;;;;4.14;100.00;99436.92;102235;1310;74561;-69
2021/11/17 10:53:28;;;;;;;60.60;44.80;;;;;;;4.12;99.97;99441.56;102256;1310;61298;-69
2021/11/17 10:55:55;;;;;;;60.00;46.00;;;;;;;4.17;100.00;99442.95;102258;1310;61976;-69
2021/11/17 10:58:26;;;;;;;62.80;46.40;;;;;;;4.21;100.00;99443.36;102253;1317;76029;-69
2021/11/17 11:00:58;;;;;;;63.70;46.80;;;;;;;4.25;100.00;99436.20;102253;1313;70568;-69
2021/11/17 11:03:29;;;;;;;55.80;43.50;;;;;;;4.29;100.00;99431.50;102238;1310;73349;-69
2021/11/17 11:06:07;;;;;;;58.70;43.30;;;;;;;4.33;100.00;99429.92;102368;1316;61406;-69
2021/11/17 11:09:12;;;;;;;56.90;44.50;;;;;;;4.36;100.00;99428.77;102256;1310;61562;-68
2021/11/17 11:11:46;;;;;;;59.50;44.70;;;;;;;4.39;100.00;99429.02;102289;1317;76543;-68
2021/11/17 11:14:30;;;;;;;57.80;45.80;;;;;;;4.42;99.98;99420.30;102254;1317;70493;-69
2021/11/17 11:17:02;;;;;;;59.70;47.20;;;;;;;4.50;100.00;99416.16;102242;1310;74587;-69
2021/11/17 11:19:31;;;;;;;62.50;45.80;;;;;;;4.57;100.00;99413.63;101879;1316;61321;-69
2021/11/17 11:21:58;;;;;;;61.10;46.00;;;;;;;4.60;99.81;99412.42;101983;1316;61309;-70
2021/11/17 11:24:34;;;;;;;64.00;49.10;;;;;;;4.57;99.60;99413.59;102314;1310;76293;-69
2021/11/17 11:27:01;;;;;;;73.10;50.70;;;;;;;4.57;99.72;99415.02;101854;1316;68544;-69
2021/11/17 11:29:33;;;;;;;73.80;52.50;;;;;;;4.60;99.98;99413.68;102321;1310;61438;-68
2021/11/17 11:32:04;;;;;;;65.00;51.40;;;;;;;4.64;100.00;99416.01;102243;1310;61335;-71
2021/11/17 11:34:42;;;;;;;68.20;50.40;;;;;;;4.68;100.00;99416.23;102270;1311;61231;-70
2021/11/17 11:37:23;;;;;;;60.90;48.00;;;;;;;4.72;100.00;99416.95;102263;1310;75509;-70
2021/11/17 11:39:54;;;;;;;65.50;48.90;;;;;;;4.75;100.00;99420.53;102270;1316;69335;-70
2021/11/17 11:42:26;;;;;;;62.00;46.50;;;;;;;4.78;99.95;99414.26;102283;1310;71892;-70
2021/11/17 11:44:59;;;;;;;65.90;48.90;;;;;;;4.77;99.81;99412.38;102270;1310;61352;-70
2021/11/17 11:47:28;;;;;;;67.30;49.10;;;;;;;4.76;99.83;99411.33;102252;1310;61278;-70
2021/11/17 11:50:00;;;;;;;62.60;49.60;;;;;;;4.78;99.90;99410.20;102289;1311;76116;-70
2021/11/17 11:52:36;;;;;;;69.80;51.20;;;;;;;4.79;99.91;99410.00;102234;1316;69457;-69
2021/11/17 11:55:05;;;;;;;74.60;52.80;;;;;;;4.80;99.89;99407.68;102233;1310;74676;-69
2021/11/17 11:57:40;;;;;;;69.40;52.90;;;;;;;4.80;99.95;99411.73;102303;1316;61225;-68
2021/11/17 12:00:09;;;;;;;82.90;59.40;;;;;;;4.82;100.00;99413.60;102251;1316;62222;-69
2021/11/17 12:03:08;;;;;;;84.80;61.80;;;;;;;4.82;100.00;99417.46;101825;1316;74871;-69
2021/11/17 12:05:38;;;;;;;74.70;59.40;;;;;;;4.84;100.00;99423.36;102318;1317;69513;-69
2021/11/17 12:08:13;;;;;;;76.50;57.20;;;;;;;4.86;100.00;99418.22;102273;1317;74555;-69
2021/11/17 12:10:55;;;;;;;77.30;57.40;;;;;;;4.84;100.00;99414.55;102233;1318;61406;-69
2021/11/17 12:13:30;;;;;;;77.20;57.60;;;;;;;4.82;100.00;99412.19;102291;1316;61303;-69
2021/11/17 12:16:14;;;;;;;82.40;60.00;;;;;;;4.81;100.00;99416.27;102365;1316;76034;-70
2021/11/17 12:18:52;;;;;;;91.10;64.10;;;;;;;4.80;100.00;99415.92;102270;1316;68977;-69
2021/11/17 12:21:44;;;;;;;95.70;66.00;;;;;;;4.80;100.00;99417.36;102239;1312;73749;-69
2021/11/17 12:24:45;;;;;;;101.70;71.20;;;;;;;4.81;100.00;99416.61;101535;1319;61323;-70
2021/11/17 12:27:30;;;;;;;88.50;63.00;;;;;;;4.80;100.00;99406.44;100725;1328;62413;-70
2021/11/17 12:30:01;;;;;;;86.50;63.90;;;;;;;4.76;100.00;99409.23;100534;1332;76497;-70
2021/11/17 12:32:27;;;;;;;94.00;66.00;;;;;;;4.74;100.00;99402.59;100623;1327;69410;-69
2021/11/17 12:35:07;;;;;;;92.00;65.00;;;;;;;4.76;100.00;99403.09;100794;1331;74028;-68
2021/11/17 12:37:53;;;;;;;88.40;61.40;;;;;;;4.76;100.00;99401.13;100716;1332;61545;-70
2021/11/17 12:40:44;;;;;;;88.50;64.50;;;;;;;4.76;100.00;99403.96;100410;1331;537080;-70
2021/11/17 12:43:15;;;;;;;83.00;62.60;;;;;;;4.77;100.00;99400.38;100807;1331;76477;-68
2021/11/17 12:45:49;;;;;;;88.50;61.60;;;;;;;4.78;100.00;99401.41;100934;1324;69644;-68
2021/11/17 12:48:39;;;;;;;92.60;64.70;;;;;;;4.79;100.00;99402.95;100800;1331;73910;-69
2021/11/17 12:51:17;;;;;;;93.20;65.30;;;;;;;4.79;100.00;99401.38;100696;1331;61333;-69
2021/11/17 12:53:57;;;;;;;89.30;67.10;;;;;;;4.77;100.00;99403.23;100698;1328;61501;-69
2021/11/17 12:56:45;;;;;;;87.60;63.20;;;;;;;4.76;100.00;99406.40;100683;1327;75840;-69
2021/11/17 12:59:17;;;;;;;85.50;63.10;;;;;;;4.75;100.00;99402.94;100772;1328;70963;-69
2021/11/17 13:01:48;;;;;;;84.30;61.60;;;;;;;4.75;100.00;99399.58;100930;1323;73726;-70
2021/11/17 13:04:14;;;;;;;92.20;64.60;;;;;;;4.77;100.00;99398.29;101824;1319;61416;-70
2021/11/17 13:06:41;;;;;;;91.30;64.40;;;;;;;4.77;100.00;99396.38;102425;1317;61231;-72
2021/11/17 13:09:08;;;;;;;97.20;71.70;;;;;;;4.77;100.00;99397.59;102382;1317;75556;-70
2021/11/17 13:11:47;;;;;;;104.00;75.50;;;;;;;4.79;100.00;99402.09;102412;1316;61305;-69
2021/11/17 13:14:17;;;;;;;105.30;77.10;;;;;;;4.80;100.00;99409.59;102411;1310;74606;-71
2021/11/17 13:16:47;;;;;;;107.60;78.90;;;;;;;4.80;100.00;99410.13;102280;1316;61307;-70
2021/11/17 13:19:31;;;;;;;111.20;86.10;;;;;;;4.76;100.00;99404.98;102118;1316;61541;-69
2021/11/17 13:22:01;;;;;;;112.70;83.70;;;;;;;4.75;100.00;99399.59;102272;1316;76567;-69
2021/11/17 13:24:37;;;;;;;119.70;84.40;;;;;;;4.76;100.00;99398.84;102364;1316;68964;-71
2021/11/17 13:27:10;;;;;;;119.90;86.80;;;;;;;4.78;100.00;99394.55;102279;1316;74589;-70
2021/11/17 13:29:52;;;;;;;120.70;85.50;;;;;;;4.79;100.00;99392.04;102285;1317;61281;-70
2021/11/17 13:32:34;;;;;;;106.30;80.20;;;;;;;4.80;100.00;99393.41;102297;1316;61288;-69
2021/11/17 13:35:24;;;;;;;110.50;82.80;;;;;;;4.82;100.00;99396.16;101960;1318;73620;-70
2021/11/17 13:38:14;;;;;;;114.00;80.20;;;;;;;4.82;100.00;99397.91;102313;1316;69915;-70
2021/11/17 13:40:42;;;;;;;106.70;78.10;;;;;;;4.83;100.00;99400.14;102219;1317;74470;-69
2021/11/17 13:43:10;;;;;;;114.00;82.40;;;;;;;4.84;100.00;99397.33;102308;1316;61394;-70
2021/11/17 13:45:39;;;;;;;105.90;78.80;;;;;;;4.84;100.00;99394.85;102320;1316;61303;-68
2021/11/17 13:48:07;;;;;;;105.90;75.70;;;;;;;4.85;100.00;99391.14;102424;1311;76595;-69
2021/11/17 13:50:38;;;;;;;102.60;75.70;;;;;;;4.84;100.00;99390.45;102283;1316;68579;-69
2021/11/17 13:53:08;;;;;;;108.00;79.30;;;;;;;4.83;100.00;99389.41;102274;1317;74595;-69
2021/11/17 13:55:38;;;;;;;100.60;74.60;;;;;;;4.83;100.00;99387.50;102303;1317;61405;-69
2021/11/17 13:58:07;;;;;;;100.70;74.40;;;;;;;4.83;100.00;99390.49;102288;1316;61994;-69
2021/11/17 14:00:38;;;;;;;98.20;73.90;;;;;;;4.83;100.00;99384.14;102293;1316;76248;-68
2021/11/17 14:03:06;;;;;;;101.10;75.40;;;;;;;4.84;100.00;99382.20;101884;1318;70567;-69
2021/11/17 14:05:39;;;;;;;99.70;77.20;;;;;;;4.83;100.00;99380.98;102309;1317;74814;-69
2021/11/17 14:08:08;;;;;;;108.80;80.70;;;;;;;4.82;100.00;99382.25;102172;1313;61339;-69
2021/11/17 14:10:35;;;;;;;107.10;79.90;;;;;;;4.82;100.00;99379.97;102277;1317;61308;-69
2021/11/17 14:13:03;;;;;;;108.90;79.90;;;;;;;4.81;100.00;99375.40;102288;1316;76530;-69
2021/11/17 14:15:30;;;;;;;107.80;81.20;;;;;;;4.82;100.00;99376.45;102259;1317;69076;-70
2021/11/17 14:17:57;;;;;;;112.60;82.30;;;;;;;4.83;100.00;99370.79;102254;1316;73505;-70
2021/11/17 14:20:24;;;;;;;121.90;92.20;;;;;;;4.83;100.00;99366.71;102094;1320;61416;-70